createdAt,value
2018-02-08T00:00:24.391Z,36.47
2018-02-08T00:02:52.504Z,37.00
2018-02-08T00:05:20.602Z,39.17
2018-02-08T00:07:48.726Z,37.83
2018-02-08T00:10:17.752Z,36.70
2018-02-08T00:12:45.865Z,40.80
2018-02-08T00:15:13.979Z,40.53
2018-02-08T00:17:42.099Z,39.20
2018-02-08T00:20:10.209Z,41.63
2018-02-08T00:22:45.974Z,40.47
2018-02-08T00:25:14.077Z,42.17
2018-02-08T00:27:42.199Z,38.53
2018-02-08T00:30:10.302Z,42.77
2018-02-08T00:32:38.422Z,36.17
2018-02-08T00:35:06.540Z,38.23
2018-02-08T00:37:34.664Z,43.67
2018-02-08T00:40:02.800Z,35.33
2018-02-08T00:42:30.919Z,39.20
2018-02-08T00:44:59.045Z,37.10
2018-02-08T00:47:27.155Z,39.50
2018-02-08T00:49:55.292Z,39.77
2018-02-08T00:52:23.397Z,39.63
2018-02-08T00:54:51.615Z,40.47
2018-02-08T00:57:19.740Z,39.63
2018-02-08T00:59:47.865Z,42.90
2018-02-08T01:02:15.994Z,40.07
2018-02-08T01:04:44.305Z,39.73
2018-02-08T01:07:12.391Z,39.83
2018-02-08T01:09:40.529Z,39.10
2018-02-08T01:12:08.653Z,43.87
2018-02-08T01:14:36.791Z,43.73
2018-02-08T01:17:04.902Z,40.73
2018-02-08T01:19:33.025Z,36.80
2018-02-08T01:22:01.127Z,43.20
2018-02-08T01:24:29.278Z,41.10
2018-02-08T01:26:57.406Z,41.73
2018-02-08T01:29:25.528Z,38.60
2018-02-08T01:31:53.630Z,43.57
2018-02-08T01:34:21.750Z,46.00
2018-02-08T01:36:49.868Z,40.00
2018-02-08T01:39:17.995Z,43.30
2018-02-08T01:41:46.113Z,39.90
2018-02-08T01:44:14.238Z,42.00
2018-02-08T01:46:42.370Z,43.50
2018-02-08T01:49:10.493Z,48.33
2018-02-08T01:51:38.598Z,41.70
2018-02-08T01:54:06.720Z,41.63
2018-02-08T01:56:34.859Z,41.37
2018-02-08T01:59:02.963Z,46.33
2018-02-08T02:01:31.088Z,37.57
2018-02-08T02:03:59.201Z,40.20
2018-02-08T02:06:27.351Z,36.53
2018-02-08T02:11:48.824Z,45.17
2018-02-08T02:14:16.937Z,38.93
2018-02-08T02:16:45.053Z,43.60
2018-02-08T02:19:13.177Z,41.50
2018-02-08T02:21:41.286Z,44.53
2018-02-08T02:24:09.412Z,38.77
2018-02-08T02:26:37.517Z,39.60
2018-02-08T02:29:05.652Z,42.77
2018-02-08T02:31:33.758Z,41.47
2018-02-08T02:34:01.884Z,39.23
2018-02-08T02:36:30.024Z,44.13
2018-02-08T02:38:58.145Z,42.47
2018-02-08T02:41:26.265Z,40.47
2018-02-08T02:43:54.397Z,38.60
2018-02-08T02:46:22.529Z,43.80
2018-02-08T02:48:50.678Z,41.77
2018-02-08T02:51:18.767Z,41.23
2018-02-08T02:53:46.885Z,42.27
2018-02-08T02:56:15.006Z,44.23
2018-02-08T02:58:43.125Z,43.80
2018-02-08T03:01:11.238Z,42.40
2018-02-08T03:03:39.346Z,43.03
2018-02-08T03:06:07.478Z,38.77
2018-02-08T03:08:35.595Z,40.07
2018-02-08T03:11:03.716Z,40.87
2018-02-08T03:13:31.850Z,40.43
2018-02-08T03:15:59.968Z,44.77
2018-02-08T03:18:28.096Z,44.73
2018-02-08T03:20:59.923Z,42.83
2018-02-08T03:23:28.049Z,45.63
2018-02-08T03:25:56.168Z,43.87
2018-02-08T03:28:24.304Z,43.00
2018-02-08T03:31:13.249Z,44.57
2018-02-08T03:33:41.365Z,42.63
2018-02-08T03:36:09.472Z,41.60
2018-02-08T03:38:37.597Z,42.20
2018-02-08T03:41:05.714Z,42.17
2018-02-08T03:43:33.822Z,40.73
2018-02-08T03:46:01.934Z,43.37
2018-02-08T03:48:30.054Z,41.50
2018-02-08T03:50:58.180Z,39.97
2018-02-08T03:53:26.300Z,42.57
2018-02-08T03:55:54.416Z,43.20
2018-02-08T03:58:22.534Z,45.93
2018-02-08T04:00:50.656Z,41.17
2018-02-08T04:03:18.752Z,43.90
2018-02-08T04:05:46.879Z,44.67
2018-02-08T04:08:14.987Z,44.73
2018-02-08T04:10:43.103Z,44.57
2018-02-08T04:13:19.393Z,42.60
2018-02-08T04:15:47.524Z,44.27
2018-02-08T04:18:15.640Z,42.87
2018-02-08T04:20:43.774Z,39.83
2018-02-08T04:23:12.042Z,38.97
2018-02-08T04:25:40.148Z,38.63
2018-02-08T04:28:08.263Z,44.00
2018-02-08T04:30:36.370Z,38.90
2018-02-08T04:33:04.497Z,41.20
2018-02-08T04:35:32.606Z,41.03
2018-02-08T04:38:00.736Z,38.53
2018-02-08T04:40:40.632Z,43.60
2018-02-08T04:43:20.630Z,38.77
2018-02-08T04:46:00.464Z,41.80
2018-02-08T04:48:28.582Z,41.77
2018-02-08T04:50:56.691Z,40.13
2018-02-08T04:53:25.727Z,42.57
2018-02-08T04:55:53.844Z,46.67
2018-02-08T04:58:26.384Z,42.13
2018-02-08T05:00:54.521Z,43.77
2018-02-08T05:03:25.857Z,42.47
2018-02-08T05:05:55.938Z,45.10
2018-02-08T05:08:24.046Z,45.60
2018-02-08T05:10:52.162Z,38.70
2018-02-08T05:13:20.270Z,44.37
2018-02-08T05:15:48.409Z,44.20
2018-02-08T05:18:16.524Z,41.50
2018-02-08T05:20:44.643Z,40.67
2018-02-08T05:23:12.781Z,50.30
2018-02-08T05:25:40.914Z,43.73
2018-02-08T05:28:09.020Z,42.80
2018-02-08T05:30:39.096Z,43.13
2018-02-08T05:33:07.208Z,43.57
2018-02-08T05:35:35.310Z,39.27
2018-02-08T05:38:15.784Z,47.23
2018-02-08T05:40:43.909Z,43.47
2018-02-08T05:43:12.022Z,43.70
2018-02-08T05:45:40.153Z,45.10
2018-02-08T05:48:08.270Z,43.50
2018-02-08T05:50:36.391Z,44.93
2018-02-08T05:53:04.508Z,48.23
2018-02-08T05:55:36.510Z,47.37
2018-02-08T05:58:04.643Z,44.33
2018-02-08T06:00:46.246Z,44.97
2018-02-08T06:03:14.374Z,45.53
2018-02-08T06:05:42.488Z,44.53
2018-02-08T06:08:16.492Z,46.97
2018-02-08T06:10:52.558Z,43.50
2018-02-08T06:13:20.673Z,43.63
2018-02-08T06:15:48.793Z,41.07
2018-02-08T06:18:16.920Z,45.83
2018-02-08T06:20:45.023Z,46.23
2018-02-08T06:23:13.166Z,44.97
2018-02-08T06:25:41.277Z,50.97
2018-02-08T06:28:15.716Z,45.07
2018-02-08T06:30:43.822Z,41.67
2018-02-08T06:33:11.961Z,45.40
2018-02-08T06:35:40.080Z,44.77
2018-02-08T06:38:09.120Z,48.17
2018-02-08T06:40:39.126Z,42.27
2018-02-08T06:43:07.253Z,51.07
2018-02-08T06:45:35.402Z,44.50
2018-02-08T06:48:03.531Z,45.40
2018-02-08T06:50:41.480Z,39.97
2018-02-08T06:53:09.608Z,46.47
2018-02-08T06:55:37.718Z,44.13
2018-02-08T06:58:05.829Z,44.17
2018-02-08T07:00:33.938Z,46.83
2018-02-08T07:03:02.058Z,43.97
2018-02-08T07:05:30.162Z,45.27
2018-02-08T07:08:01.802Z,46.87
2018-02-08T07:10:29.920Z,49.00
2018-02-08T07:12:58.082Z,45.23
2018-02-08T07:15:26.151Z,48.00
2018-02-08T07:17:54.296Z,43.23
2018-02-08T07:20:22.413Z,53.00
2018-02-08T07:22:50.525Z,47.10
2018-02-08T07:25:18.649Z,47.33
2018-02-08T07:27:46.784Z,44.27
2018-02-08T07:30:14.907Z,41.87
2018-02-08T07:32:43.020Z,42.90
2018-02-08T07:35:11.164Z,48.87
2018-02-08T07:37:39.294Z,47.07
2018-02-08T07:40:07.420Z,51.00
2018-02-08T07:42:35.532Z,47.90
2018-02-08T07:45:08.599Z,49.87
2018-02-08T07:47:36.694Z,43.53
2018-02-08T07:50:04.805Z,50.37
2018-02-08T07:52:32.918Z,45.73
2018-02-08T07:55:01.034Z,47.33
2018-02-08T07:57:32.980Z,44.10
2018-02-08T08:00:01.105Z,44.27
2018-02-08T08:02:29.234Z,47.80
2018-02-08T08:04:57.344Z,46.27
2018-02-08T08:07:25.468Z,47.60
2018-02-08T08:09:53.619Z,46.63
2018-02-08T08:12:21.718Z,53.77
2018-02-08T08:14:49.865Z,43.33
2018-02-08T08:17:18.074Z,48.60
2018-02-08T08:19:46.183Z,46.53
2018-02-08T08:22:14.305Z,48.30
2018-02-08T08:24:42.421Z,49.90
2018-02-08T08:27:10.546Z,49.40
2018-02-08T08:29:38.663Z,51.20
2018-02-08T08:32:06.782Z,49.60
2018-02-08T08:34:34.900Z,48.13
2018-02-08T08:37:04.918Z,57.10
2018-02-08T08:39:33.027Z,44.07
2018-02-08T08:42:01.154Z,45.77
2018-02-08T08:44:32.888Z,52.90
2018-02-08T08:47:00.982Z,47.20
2018-02-08T08:49:29.120Z,46.17
2018-02-08T08:51:57.226Z,48.53
2018-02-08T08:54:25.347Z,49.53
2018-02-08T08:56:53.464Z,48.43
2018-02-08T08:59:21.606Z,52.23
2018-02-08T09:01:49.726Z,47.43
2018-02-08T09:04:21.953Z,48.63
2018-02-08T09:06:50.014Z,48.97
2018-02-08T09:09:18.134Z,50.43
2018-02-08T09:11:48.194Z,49.47
2018-02-08T09:14:16.311Z,50.10
2018-02-08T09:16:44.460Z,49.17
2018-02-08T09:19:12.570Z,57.53
2018-02-08T09:21:40.705Z,50.53
2018-02-08T09:24:08.826Z,50.20
2018-02-08T09:26:36.937Z,53.70
2018-02-08T09:29:05.065Z,54.27
2018-02-08T09:31:34.124Z,49.47
2018-02-08T09:34:02.259Z,49.90
2018-02-08T09:36:30.389Z,47.30
2018-02-08T09:38:58.489Z,52.90
2018-02-08T09:41:26.616Z,50.60
2018-02-08T09:43:54.744Z,58.23
2018-02-08T09:46:22.854Z,51.07
2018-02-08T09:48:51.018Z,48.87
2018-02-08T09:51:19.122Z,48.97
2018-02-08T09:53:47.269Z,60.03
2018-02-08T09:56:15.389Z,56.67
2018-02-08T09:58:43.494Z,56.57
2018-02-08T10:01:11.620Z,57.80
2018-02-08T10:03:39.732Z,62.50
2018-02-08T10:06:07.860Z,55.00
2018-02-08T10:08:35.984Z,54.13
2018-02-08T10:11:04.100Z,60.07
2018-02-08T10:13:32.223Z,61.53
2018-02-08T10:16:00.337Z,55.23
2018-02-08T10:18:28.448Z,52.33
2018-02-08T10:20:56.566Z,57.70
2018-02-08T10:23:24.688Z,57.23
2018-02-08T10:25:52.793Z,63.30
2018-02-08T10:28:20.906Z,60.17
2018-02-08T10:30:49.051Z,59.83
2018-02-08T10:33:29.844Z,58.23
2018-02-08T10:35:57.969Z,60.97
2018-02-08T10:38:26.096Z,54.77
2018-02-08T10:40:54.220Z,59.90
2018-02-08T10:43:22.336Z,63.93
2018-02-08T10:45:50.446Z,59.13
2018-02-08T10:48:18.550Z,61.07
2018-02-08T10:50:46.676Z,60.83
2018-02-08T10:53:14.823Z,60.50
2018-02-08T10:55:42.952Z,59.60
2018-02-08T10:58:11.093Z,63.43
2018-02-08T11:00:39.224Z,60.50
2018-02-08T11:03:07.333Z,61.77
2018-02-08T11:05:35.434Z,55.17
2018-02-08T11:08:03.582Z,58.27
2018-02-08T11:10:31.691Z,73.53
2018-02-08T11:12:59.829Z,59.93
2018-02-08T11:15:27.936Z,57.57
2018-02-08T11:17:56.052Z,59.80
2018-02-08T11:20:24.180Z,52.10
2018-02-08T11:22:52.309Z,53.17
2018-02-08T11:25:20.436Z,66.37
2018-02-08T11:27:48.556Z,50.53
2018-02-08T11:30:16.677Z,52.37
2018-02-08T11:32:44.792Z,52.23
2018-02-08T11:35:12.900Z,49.50
2018-02-08T11:37:41.012Z,53.80
2018-02-08T11:40:09.138Z,66.47
2018-02-08T11:42:37.245Z,49.70
2018-02-08T11:45:05.374Z,51.27
2018-02-08T11:47:44.021Z,52.97
2018-02-08T11:50:12.150Z,64.03
2018-02-08T11:52:40.276Z,50.40
2018-02-08T11:55:08.391Z,53.07
2018-02-08T11:57:36.494Z,54.63
2018-02-08T12:00:04.603Z,49.77
2018-02-08T12:02:32.720Z,51.13
2018-02-08T12:05:00.854Z,51.30
2018-02-08T12:07:33.978Z,55.00
2018-02-08T12:10:07.468Z,50.47
2018-02-08T12:12:35.596Z,56.03
2018-02-08T12:15:05.613Z,49.40
2018-02-08T12:17:33.796Z,62.10
2018-02-08T12:20:01.928Z,47.37
2018-02-08T12:22:37.010Z,46.03
2018-02-08T12:25:05.316Z,56.83
2018-02-08T12:27:33.410Z,55.13
2018-02-08T12:30:01.540Z,56.97
2018-02-08T12:32:30.560Z,47.40
2018-02-08T12:34:58.703Z,47.67
2018-02-08T12:37:35.020Z,49.10
2018-02-08T12:40:03.168Z,52.47
2018-02-08T12:42:31.306Z,50.13
2018-02-08T12:44:59.418Z,49.97
2018-02-08T12:47:27.574Z,49.13
2018-02-08T12:49:55.688Z,51.77
2018-02-08T12:52:23.828Z,47.50
2018-02-08T12:54:51.926Z,48.67
2018-02-08T12:57:20.050Z,47.30
2018-02-08T12:59:48.277Z,54.43
2018-02-08T13:02:16.440Z,45.10
2018-02-08T13:04:44.789Z,40.03
2018-02-08T13:07:12.898Z,45.10
2018-02-08T13:09:41.022Z,47.00
2018-02-08T13:12:09.162Z,40.87
2018-02-08T13:14:37.273Z,45.03
2018-02-08T13:17:05.404Z,40.10
2018-02-08T13:19:33.537Z,43.27
2018-02-08T13:22:01.795Z,48.90
2018-02-08T13:24:29.904Z,41.60
2018-02-08T13:26:58.010Z,44.97
2018-02-08T13:29:27.152Z,41.40
2018-02-08T13:31:55.269Z,41.07
2018-02-08T13:34:27.467Z,38.90
2018-02-08T13:36:55.579Z,40.77
2018-02-08T13:42:32.131Z,41.23
2018-02-08T13:45:01.642Z,39.07
2018-02-08T13:47:51.656Z,44.73
2018-02-08T13:50:41.392Z,45.50
2018-02-08T13:53:24.627Z,45.47
2018-02-08T13:56:01.593Z,45.20
2018-02-08T13:58:30.644Z,44.87
2018-02-08T14:00:59.313Z,40.50
2018-02-08T14:03:30.642Z,40.80
2018-02-08T14:05:58.837Z,41.33
2018-02-08T14:08:27.070Z,42.03
2018-02-08T14:10:55.386Z,54.90
2018-02-08T14:13:23.590Z,42.90
2018-02-08T14:15:51.829Z,52.93
2018-02-08T14:18:19.985Z,45.13
2018-02-08T14:20:48.179Z,47.87
2018-02-08T14:23:18.199Z,44.77
2018-02-08T14:25:46.475Z,46.93
2018-02-08T14:28:14.691Z,48.90
2018-02-08T14:30:42.937Z,51.87
2018-02-08T14:33:11.173Z,48.43
2018-02-08T14:35:40.476Z,47.10
2018-02-08T14:38:08.642Z,44.90
2018-02-08T14:40:36.872Z,51.80
2018-02-08T14:43:06.114Z,47.40
2018-02-08T14:45:34.334Z,42.47
2018-02-08T14:48:02.502Z,44.87
2018-02-08T14:50:30.755Z,51.23
2018-02-08T14:52:58.929Z,48.43
2018-02-08T14:55:27.135Z,45.87
2018-02-08T14:57:55.335Z,44.83
2018-02-08T15:00:23.498Z,50.77
2018-02-08T15:02:51.816Z,45.40
2018-02-08T15:05:21.143Z,48.47
2018-02-08T15:07:49.444Z,53.03
2018-02-08T15:10:17.641Z,44.97
2018-02-08T15:12:45.869Z,45.40
2018-02-08T15:15:14.095Z,50.47
2018-02-08T15:17:42.291Z,42.00
2018-02-08T15:20:10.600Z,47.80
2018-02-08T15:22:38.780Z,52.60
2018-02-08T15:25:07.093Z,50.67
2018-02-08T15:27:35.296Z,49.87
2018-02-08T15:30:03.459Z,43.30
2018-02-08T15:32:31.742Z,47.20
2018-02-08T15:34:59.969Z,47.77
2018-02-08T15:37:28.186Z,43.40
2018-02-08T15:39:56.434Z,47.37
2018-02-08T15:42:24.867Z,44.40
2018-02-08T15:44:53.071Z,41.67
2018-02-08T15:47:21.330Z,39.77
2018-02-08T15:49:49.509Z,40.20
2018-02-08T15:52:17.741Z,40.80
2018-02-08T15:54:45.941Z,42.27
2018-02-08T15:57:14.181Z,40.53
2018-02-08T15:59:42.391Z,41.57
2018-02-08T16:02:10.602Z,38.33
2018-02-08T16:04:38.871Z,40.57
2018-02-08T16:07:07.075Z,38.33
2018-02-08T16:09:35.338Z,40.53
2018-02-08T16:12:03.615Z,37.40
2018-02-08T16:14:31.771Z,40.70
2018-02-08T16:16:59.970Z,51.17
2018-02-08T16:19:28.194Z,36.60
2018-02-08T16:21:56.417Z,40.77
2018-02-08T16:24:24.618Z,45.47
2018-02-08T16:26:53.282Z,38.17
2018-02-08T16:29:21.675Z,39.53
2018-02-08T16:31:49.922Z,39.23
2018-02-08T16:34:18.112Z,37.67
2018-02-08T16:36:46.311Z,39.77
2018-02-08T16:39:14.525Z,38.10
2018-02-08T16:41:42.700Z,43.67
2018-02-08T16:44:10.890Z,38.47
2018-02-08T16:46:39.070Z,46.73
2018-02-08T16:49:08.299Z,39.70
2018-02-08T16:51:38.652Z,45.33
2018-02-08T16:54:06.877Z,43.17
2018-02-08T16:56:36.895Z,41.03
2018-02-08T16:59:05.082Z,46.23
2018-02-08T17:01:33.504Z,38.43
2018-02-08T17:04:01.841Z,45.47
2018-02-08T17:06:30.073Z,43.07
2018-02-08T17:08:58.345Z,38.03
2018-02-08T17:11:26.577Z,44.53
2018-02-08T17:13:54.775Z,48.63
2018-02-08T17:16:22.975Z,41.80
2018-02-08T17:18:51.177Z,45.97
2018-02-08T17:21:19.373Z,46.30
2018-02-08T17:23:47.585Z,48.83
2018-02-08T17:26:15.810Z,45.43
2018-02-08T17:28:45.967Z,48.47
2018-02-08T17:31:14.166Z,45.20
2018-02-08T17:33:42.355Z,48.00
2018-02-08T17:36:10.570Z,39.63
2018-02-08T17:38:38.803Z,49.17
2018-02-08T17:41:06.968Z,43.30
2018-02-08T17:43:35.227Z,47.33
2018-02-08T17:46:03.439Z,47.13
2018-02-08T17:48:31.603Z,45.33
2018-02-08T17:50:59.787Z,45.00
2018-02-08T17:53:28.023Z,46.03
2018-02-08T17:55:56.311Z,45.83
2018-02-08T17:58:24.469Z,46.83
2018-02-08T18:00:52.650Z,51.53
2018-02-08T18:03:20.837Z,45.87
2018-02-08T18:05:49.035Z,50.13
2018-02-08T18:08:17.233Z,50.70
2018-02-08T18:10:45.434Z,48.77
2018-02-08T18:13:13.668Z,49.53
2018-02-08T18:15:42.049Z,43.50
2018-02-08T18:18:11.029Z,48.50
2018-02-08T18:20:39.533Z,47.63
2018-02-08T18:23:07.751Z,42.90
2018-02-08T18:25:36.004Z,48.10
2018-02-08T18:28:04.222Z,44.00
2018-02-08T18:30:32.471Z,50.27
2018-02-08T18:33:00.693Z,45.53
2018-02-08T18:35:28.989Z,48.03
2018-02-08T18:37:57.220Z,51.07
2018-02-08T18:40:25.496Z,55.13
2018-02-08T18:42:53.795Z,50.83
2018-02-08T18:45:22.001Z,48.57
2018-02-08T18:47:51.759Z,43.97
2018-02-08T18:50:20.020Z,43.23
2018-02-08T18:52:48.294Z,52.10
2018-02-08T18:55:16.544Z,48.43
2018-02-08T18:57:44.771Z,39.40
2018-02-08T19:00:12.955Z,46.20
2018-02-08T19:02:41.206Z,46.40
2018-02-08T19:05:09.374Z,50.53
2018-02-08T19:07:37.653Z,46.97
2018-02-08T19:10:05.812Z,51.87
2018-02-08T19:12:34.104Z,45.63
2018-02-08T19:15:02.328Z,50.07
2018-02-08T19:17:30.518Z,43.37
2018-02-08T19:19:58.738Z,47.13
2018-02-08T19:22:27.012Z,49.93
2018-02-08T19:24:55.254Z,53.70
2018-02-08T19:27:23.546Z,51.20
2018-02-08T19:29:51.724Z,50.70
2018-02-08T19:32:20.016Z,47.10
2018-02-08T19:34:48.223Z,46.83
2018-02-08T19:37:16.430Z,48.83
2018-02-08T19:39:44.618Z,47.40
2018-02-08T19:42:12.887Z,50.47
2018-02-08T19:44:41.146Z,47.37
2018-02-08T19:47:09.862Z,49.27
2018-02-08T19:49:38.014Z,46.13
2018-02-08T19:52:06.198Z,49.33
2018-02-08T19:54:34.378Z,51.63
2018-02-08T19:57:02.543Z,50.67
2018-02-08T19:59:30.760Z,47.33
2018-02-08T20:01:59.020Z,51.57
2018-02-08T20:04:27.209Z,54.90
2018-02-08T20:06:57.056Z,55.47
2018-02-08T20:09:25.244Z,50.67
2018-02-08T20:11:55.167Z,54.60
2018-02-08T20:14:29.094Z,51.83
2018-02-08T20:17:01.264Z,51.27
2018-02-08T20:19:33.155Z,57.57
2018-02-08T20:22:07.690Z,63.80
2018-02-08T20:24:35.858Z,56.37
2018-02-08T20:27:05.179Z,64.87
2018-02-08T20:29:33.375Z,60.13
2018-02-08T20:32:03.597Z,56.30
2018-02-08T20:34:31.860Z,58.33
2018-02-08T20:37:00.864Z,58.73
2018-02-08T20:39:29.134Z,60.40
2018-02-08T20:41:59.036Z,63.80
2018-02-08T20:44:27.258Z,62.20
2018-02-08T20:46:56.574Z,60.50
2018-02-08T20:49:24.775Z,68.33
2018-02-08T20:51:52.966Z,60.50
2018-02-08T20:54:22.156Z,60.10
2018-02-08T20:56:53.102Z,59.80
2018-02-08T20:59:21.295Z,74.73
2018-02-08T21:01:52.550Z,66.43
2018-02-08T21:04:22.670Z,62.97
2018-02-08T21:06:52.892Z,66.30
2018-02-08T21:09:21.154Z,72.23
2018-02-08T21:11:51.876Z,59.60
2018-02-08T21:14:20.165Z,65.77
2018-02-08T21:16:48.345Z,63.50
2018-02-08T21:19:16.545Z,63.10
2018-02-08T21:21:46.118Z,63.80
2018-02-08T21:24:15.194Z,65.93
2018-02-08T21:26:45.238Z,62.17
2018-02-08T21:29:15.503Z,63.10
2018-02-08T21:31:43.695Z,60.67
2018-02-08T21:34:13.872Z,66.23
2018-02-08T21:36:42.128Z,65.13
2018-02-08T21:39:10.279Z,63.20
2018-02-08T21:41:39.739Z,60.93
2018-02-08T21:44:07.990Z,61.60
2018-02-08T21:46:36.243Z,64.03
2018-02-08T21:49:04.546Z,69.97
2018-02-08T21:51:32.826Z,69.47
2018-02-08T21:54:01.051Z,75.57
2018-02-08T21:56:29.233Z,66.77
2018-02-08T21:58:57.542Z,66.53
2018-02-08T22:01:25.757Z,69.00
2018-02-08T22:03:53.961Z,62.60
2018-02-08T22:06:22.156Z,65.70
2018-02-08T22:08:50.373Z,73.00
2018-02-08T22:11:18.605Z,68.03
2018-02-08T22:13:46.797Z,73.87
2018-02-08T22:16:15.010Z,66.40
2018-02-08T22:18:43.331Z,66.93
2018-02-08T22:21:11.600Z,68.17
2018-02-08T22:23:39.770Z,66.53
2018-02-08T22:26:07.985Z,69.63
2018-02-08T22:28:36.194Z,68.23
2018-02-08T22:31:04.429Z,67.80
2018-02-08T22:33:32.593Z,71.87
2018-02-08T22:36:02.583Z,71.83
2018-02-08T22:38:30.782Z,71.70
2018-02-08T22:40:59.018Z,73.13
2018-02-08T22:43:27.198Z,75.40
2018-02-08T22:45:55.400Z,68.77
2018-02-08T22:48:23.608Z,68.27
2018-02-08T22:50:51.770Z,74.03
2018-02-08T22:53:19.951Z,71.27
2018-02-08T22:55:48.195Z,71.03
2018-02-08T22:58:16.374Z,65.77
2018-02-08T23:00:44.670Z,72.60
2018-02-08T23:03:12.832Z,73.50
2018-02-08T23:05:41.076Z,68.93
2018-02-08T23:08:09.980Z,73.23
2018-02-08T23:10:38.190Z,75.33
2018-02-08T23:13:06.398Z,73.80
2018-02-08T23:15:34.558Z,75.33
2018-02-08T23:18:02.770Z,76.67
2018-02-08T23:20:31.018Z,76.50
2018-02-08T23:22:59.190Z,70.43
2018-02-08T23:25:27.380Z,75.03
2018-02-08T23:27:55.582Z,76.97
2018-02-08T23:30:23.823Z,78.67
2018-02-08T23:32:52.020Z,74.27
2018-02-08T23:35:20.236Z,75.53
2018-02-08T23:37:48.435Z,72.70
2018-02-08T23:40:16.654Z,77.57
2018-02-08T23:42:44.858Z,80.23
2018-02-08T23:45:13.026Z,76.60
2018-02-08T23:47:43.127Z,78.97
2018-02-08T23:50:11.367Z,83.40
2018-02-08T23:52:39.617Z,81.73
2018-02-08T23:55:07.809Z,78.23
2018-02-08T23:57:35.989Z,83.13
